sensor_id;sensor_type;location;lat;lon;timestamp;P1;durP1;ratioP1;P2;durP2;ratioP2
11943;SDS011;6031;50.220;10.122;2023-08-21T00:01:13;8.30;;;7.30;;
11943;SDS011;6031;50.220;10.122;2023-08-21T00:03:38;10.67;;;7.67;;
11943;SDS011;6031;50.220;10.122;2023-08-21T00:06:04;8.07;;;7.37;;
11943;SDS011;6031;50.220;10.122;2023-08-21T00:08:29;8.40;;;7.30;;
11943;SDS011;6031;50.220;10.122;2023-08-21T00:10:55;10.50;;;7.63;;
11943;SDS011;6031;50.220;10.122;2023-08-21T00:13:21;10.73;;;9.10;;
11943;SDS011;6031;50.220;10.122;2023-08-21T00:15:46;7.13;;;6.20;;
11943;SDS011;6031;50.220;10.122;2023-08-21T00:18:12;8.77;;;7.93;;
11943;SDS011;6031;50.220;10.122;2023-08-21T00:20:37;9.20;;;8.30;;
11943;SDS011;6031;50.220;10.122;2023-08-21T00:23:04;8.83;;;7.93;;
11943;SDS011;6031;50.220;10.122;2023-08-21T00:25:29;9.83;;;8.00;;
11943;SDS011;6031;50.220;10.122;2023-08-21T00:27:55;10.73;;;8.13;;
11943;SDS011;6031;50.220;10.122;2023-08-21T00:30:20;6.83;;;6.23;;
11943;SDS011;6031;50.220;10.122;2023-08-21T00:32:46;9.83;;;8.83;;
11943;SDS011;6031;50.220;10.122;2023-08-21T00:35:11;8.67;;;7.53;;
11943;SDS011;6031;50.220;10.122;2023-08-21T00:37:37;9.07;;;7.97;;
11943;SDS011;6031;50.220;10.122;2023-08-21T00:40:02;10.03;;;8.40;;
11943;SDS011;6031;50.220;10.122;2023-08-21T00:42:28;10.17;;;7.77;;
11943;SDS011;6031;50.220;10.122;2023-08-21T00:44:54;8.40;;;7.60;;
11943;SDS011;6031;50.220;10.122;2023-08-21T00:47:19;8.97;;;8.17;;
11943;SDS011;6031;50.220;10.122;2023-08-21T00:49:45;9.57;;;8.23;;
11943;SDS011;6031;50.220;10.122;2023-08-21T00:52:11;9.60;;;8.60;;
11943;SDS011;6031;50.220;10.122;2023-08-21T00:54:38;11.40;;;8.53;;
11943;SDS011;6031;50.220;10.122;2023-08-21T00:57:05;9.60;;;8.07;;
11943;SDS011;6031;50.220;10.122;2023-08-21T00:59:30;8.83;;;7.93;;
11943;SDS011;6031;50.220;10.122;2023-08-21T01:01:56;8.37;;;7.57;;
11943;SDS011;6031;50.220;10.122;2023-08-21T01:04:22;10.90;;;8.90;;
11943;SDS011;6031;50.220;10.122;2023-08-21T01:06:50;9.37;;;8.57;;
11943;SDS011;6031;50.220;10.122;2023-08-21T01:09:33;9.50;;;8.50;;
11943;SDS011;6031;50.220;10.122;2023-08-21T01:15:23;9.10;;;8.17;;
11943;SDS011;6031;50.220;10.122;2023-08-21T01:17:49;9.27;;;7.73;;
11943;SDS011;6031;50.220;10.122;2023-08-21T01:20:16;9.33;;;8.43;;
11943;SDS011;6031;50.220;10.122;2023-08-21T01:22:42;8.20;;;7.50;;
11943;SDS011;6031;50.220;10.122;2023-08-21T01:25:11;8.40;;;7.60;;
11943;SDS011;6031;50.220;10.122;2023-08-21T01:27:38;10.33;;;7.27;;
11943;SDS011;6031;50.220;10.122;2023-08-21T01:30:07;8.87;;;7.70;;
11943;SDS011;6031;50.220;10.122;2023-08-21T01:35:23;13.97;;;8.10;;
11943;SDS011;6031;50.220;10.122;2023-08-21T01:37:49;9.07;;;8.23;;
11943;SDS011;6031;50.220;10.122;2023-08-21T01:40:22;10.37;;;7.73;;
11943;SDS011;6031;50.220;10.122;2023-08-21T01:42:48;9.20;;;8.37;;
11943;SDS011;6031;50.220;10.122;2023-08-21T01:45:14;9.60;;;8.00;;
11943;SDS011;6031;50.220;10.122;2023-08-21T01:47:39;11.73;;;8.47;;
11943;SDS011;6031;50.220;10.122;2023-08-21T01:50:05;8.73;;;7.80;;
11943;SDS011;6031;50.220;10.122;2023-08-21T01:52:31;12.30;;;8.07;;
11943;SDS011;6031;50.220;10.122;2023-08-21T01:54:56;8.83;;;8.00;;
11943;SDS011;6031;50.220;10.122;2023-08-21T01:57:23;11.83;;;7.97;;
11943;SDS011;6031;50.220;10.122;2023-08-21T01:59:48;10.43;;;8.27;;
11943;SDS011;6031;50.220;10.122;2023-08-21T02:02:14;13.03;;;9.20;;
11943;SDS011;6031;50.220;10.122;2023-08-21T02:04:39;10.33;;;8.43;;
11943;SDS011;6031;50.220;10.122;2023-08-21T02:07:05;9.70;;;8.40;;
11943;SDS011;6031;50.220;10.122;2023-08-21T02:09:32;8.70;;;7.67;;
11943;SDS011;6031;50.220;10.122;2023-08-21T02:11:58;9.73;;;8.20;;
11943;SDS011;6031;50.220;10.122;2023-08-21T02:14:23;9.07;;;8.17;;
11943;SDS011;6031;50.220;10.122;2023-08-21T02:16:49;10.17;;;8.67;;
11943;SDS011;6031;50.220;10.122;2023-08-21T02:19:14;9.27;;;8.47;;
11943;SDS011;6031;50.220;10.122;2023-08-21T02:21:40;11.63;;;9.10;;
11943;SDS011;6031;50.220;10.122;2023-08-21T02:24:05;10.07;;;8.10;;
11943;SDS011;6031;50.220;10.122;2023-08-21T02:26:31;8.97;;;8.17;;
11943;SDS011;6031;50.220;10.122;2023-08-21T02:28:56;8.87;;;7.80;;
11943;SDS011;6031;50.220;10.122;2023-08-21T02:31:22;8.70;;;7.80;;
11943;SDS011;6031;50.220;10.122;2023-08-21T02:33:48;10.00;;;7.73;;
11943;SDS011;6031;50.220;10.122;2023-08-21T02:36:15;8.90;;;8.17;;
11943;SDS011;6031;50.220;10.122;2023-08-21T02:38:40;10.87;;;8.23;;
11943;SDS011;6031;50.220;10.122;2023-08-21T02:41:06;9.50;;;8.27;;
11943;SDS011;6031;50.220;10.122;2023-08-21T02:43:32;11.50;;;7.97;;
11943;SDS011;6031;50.220;10.122;2023-08-21T02:45:58;11.80;;;8.37;;
11943;SDS011;6031;50.220;10.122;2023-08-21T02:48:23;13.53;;;8.07;;
11943;SDS011;6031;50.220;10.122;2023-08-21T02:50:49;8.50;;;7.73;;
11943;SDS011;6031;50.220;10.122;2023-08-21T02:53:15;9.43;;;8.53;;
11943;SDS011;6031;50.220;10.122;2023-08-21T02:55:40;11.60;;;8.47;;
11943;SDS011;6031;50.220;10.122;2023-08-21T02:58:06;8.67;;;7.87;;
11943;SDS011;6031;50.220;10.122;2023-08-21T03:00:31;6.97;;;6.23;;
11943;SDS011;6031;50.220;10.122;2023-08-21T03:02:57;10.93;;;8.63;;
11943;SDS011;6031;50.220;10.122;2023-08-21T03:05:22;9.77;;;8.47;;
11943;SDS011;6031;50.220;10.122;2023-08-21T03:07:48;9.97;;;8.97;;
11943;SDS011;6031;50.220;10.122;2023-08-21T03:10:14;11.83;;;8.43;;
11943;SDS011;6031;50.220;10.122;2023-08-21T03:12:39;8.80;;;8.00;;
11943;SDS011;6031;50.220;10.122;2023-08-21T03:15:05;11.10;;;9.10;;
11943;SDS011;6031;50.220;10.122;2023-08-21T03:17:31;12.83;;;8.77;;
11943;SDS011;6031;50.220;10.122;2023-08-21T03:19:57;9.30;;;8.30;;
11943;SDS011;6031;50.220;10.122;2023-08-21T03:22:22;8.97;;;8.03;;
11943;SDS011;6031;50.220;10.122;2023-08-21T03:24:48;9.07;;;8.27;;
11943;SDS011;6031;50.220;10.122;2023-08-21T03:27:15;9.77;;;8.83;;
11943;SDS011;6031;50.220;10.122;2023-08-21T03:29:42;8.97;;;8.13;;
11943;SDS011;6031;50.220;10.122;2023-08-21T03:32:13;8.77;;;7.87;;
11943;SDS011;6031;50.220;10.122;2023-08-21T03:34:39;11.90;;;7.87;;
11943;SDS011;6031;50.220;10.122;2023-08-21T03:37:05;12.33;;;8.20;;
11943;SDS011;6031;50.220;10.122;2023-08-21T03:39:30;9.93;;;8.40;;
11943;SDS011;6031;50.220;10.122;2023-08-21T03:41:56;9.57;;;8.30;;
11943;SDS011;6031;50.220;10.122;2023-08-21T03:44:21;11.43;;;8.63;;
11943;SDS011;6031;50.220;10.122;2023-08-21T03:46:47;10.80;;;9.73;;
11943;SDS011;6031;50.220;10.122;2023-08-21T03:49:12;10.70;;;8.87;;
11943;SDS011;6031;50.220;10.122;2023-08-21T03:51:38;10.73;;;8.33;;
11943;SDS011;6031;50.220;10.122;2023-08-21T03:54:03;11.87;;;9.23;;
11943;SDS011;6031;50.220;10.122;2023-08-21T03:56:29;14.20;;;9.50;;
11943;SDS011;6031;50.220;10.122;2023-08-21T03:58:55;11.37;;;8.97;;
11943;SDS011;6031;50.220;10.122;2023-08-21T04:01:21;12.90;;;9.23;;
11943;SDS011;6031;50.220;10.122;2023-08-21T04:03:46;10.10;;;8.93;;
11943;SDS011;6031;50.220;10.122;2023-08-21T04:06:12;10.43;;;9.40;;
11943;SDS011;6031;50.220;10.122;2023-08-21T04:08:38;10.20;;;8.73;;
11943;SDS011;6031;50.220;10.122;2023-08-21T04:11:04;11.10;;;9.40;;
11943;SDS011;6031;50.220;10.122;2023-08-21T04:13:30;9.07;;;8.17;;
11943;SDS011;6031;50.220;10.122;2023-08-21T04:15:56;10.40;;;9.40;;
11943;SDS011;6031;50.220;10.122;2023-08-21T04:18:21;10.33;;;9.43;;
11943;SDS011;6031;50.220;10.122;2023-08-21T04:20:47;13.70;;;9.37;;
11943;SDS011;6031;50.220;10.122;2023-08-21T04:23:13;11.20;;;9.60;;
11943;SDS011;6031;50.220;10.122;2023-08-21T04:25:39;10.60;;;9.27;;
11943;SDS011;6031;50.220;10.122;2023-08-21T04:28:04;10.70;;;9.60;;
11943;SDS011;6031;50.220;10.122;2023-08-21T04:30:31;7.63;;;6.93;;
11943;SDS011;6031;50.220;10.122;2023-08-21T04:32:56;15.20;;;8.83;;
11943;SDS011;6031;50.220;10.122;2023-08-21T04:35:22;11.97;;;8.60;;
11943;SDS011;6031;50.220;10.122;2023-08-21T04:37:47;10.90;;;9.00;;
11943;SDS011;6031;50.220;10.122;2023-08-21T04:40:13;10.50;;;9.40;;
11943;SDS011;6031;50.220;10.122;2023-08-21T04:42:39;11.83;;;9.97;;
11943;SDS011;6031;50.220;10.122;2023-08-21T04:45:04;10.20;;;9.10;;
11943;SDS011;6031;50.220;10.122;2023-08-21T04:47:31;11.40;;;9.87;;
11943;SDS011;6031;50.220;10.122;2023-08-21T04:49:56;12.57;;;10.50;;
11943;SDS011;6031;50.220;10.122;2023-08-21T04:52:23;12.10;;;9.70;;
11943;SDS011;6031;50.220;10.122;2023-08-21T04:54:50;14.40;;;9.00;;
11943;SDS011;6031;50.220;10.122;2023-08-21T04:57:16;9.87;;;8.87;;
11943;SDS011;6031;50.220;10.122;2023-08-21T04:59:42;10.67;;;8.37;;
11943;SDS011;6031;50.220;10.122;2023-08-21T05:02:08;12.03;;;9.10;;
11943;SDS011;6031;50.220;10.122;2023-08-21T05:04:35;10.63;;;9.47;;
11943;SDS011;6031;50.220;10.122;2023-08-21T05:07:02;12.90;;;9.53;;
11943;SDS011;6031;50.220;10.122;2023-08-21T05:09:28;10.33;;;9.37;;
11943;SDS011;6031;50.220;10.122;2023-08-21T05:11:53;12.50;;;10.20;;
11943;SDS011;6031;50.220;10.122;2023-08-21T05:14:19;10.53;;;9.23;;
11943;SDS011;6031;50.220;10.122;2023-08-21T05:16:45;10.07;;;7.60;;
11943;SDS011;6031;50.220;10.122;2023-08-21T05:19:11;11.47;;;10.27;;
11943;SDS011;6031;50.220;10.122;2023-08-21T05:21:37;14.40;;;9.80;;
11943;SDS011;6031;50.220;10.122;2023-08-21T05:24:02;10.70;;;9.50;;
11943;SDS011;6031;50.220;10.122;2023-08-21T05:26:28;11.30;;;10.20;;
11943;SDS011;6031;50.220;10.122;2023-08-21T05:28:53;11.83;;;9.97;;
11943;SDS011;6031;50.220;10.122;2023-08-21T05:31:19;12.17;;;9.67;;
11943;SDS011;6031;50.220;10.122;2023-08-21T05:33:44;13.50;;;11.00;;
11943;SDS011;6031;50.220;10.122;2023-08-21T05:36:10;12.07;;;10.33;;
11943;SDS011;6031;50.220;10.122;2023-08-21T05:38:35;11.77;;;10.67;;
11943;SDS011;6031;50.220;10.122;2023-08-21T05:41:01;11.40;;;10.20;;
11943;SDS011;6031;50.220;10.122;2023-08-21T05:43:27;12.50;;;10.73;;
11943;SDS011;6031;50.220;10.122;2023-08-21T05:45:52;10.77;;;9.63;;
11943;SDS011;6031;50.220;10.122;2023-08-21T05:48:18;7.80;;;7.00;;
11943;SDS011;6031;50.220;10.122;2023-08-21T05:50:43;10.67;;;9.57;;
11943;SDS011;6031;50.220;10.122;2023-08-21T05:53:09;11.80;;;9.60;;
11943;SDS011;6031;50.220;10.122;2023-08-21T05:55:36;10.83;;;9.20;;
11943;SDS011;6031;50.220;10.122;2023-08-21T05:58:02;10.10;;;8.73;;
11943;SDS011;6031;50.220;10.122;2023-08-21T06:00:28;9.68;;;8.77;;
11943;SDS011;6031;50.220;10.122;2023-08-21T06:02:53;10.10;;;8.27;;
11943;SDS011;6031;50.220;10.122;2023-08-21T06:05:19;9.43;;;7.63;;
11943;SDS011;6031;50.220;10.122;2023-08-21T06:07:44;12.88;;;8.25;;
11943;SDS011;6031;50.220;10.122;2023-08-21T06:10:10;10.85;;;7.95;;
11943;SDS011;6031;50.220;10.122;2023-08-21T06:12:40;12.93;;;8.35;;
11943;SDS011;6031;50.220;10.122;2023-08-21T06:15:06;10.75;;;8.77;;
11943;SDS011;6031;50.220;10.122;2023-08-21T06:17:35;8.93;;;8.02;;
11943;SDS011;6031;50.220;10.122;2023-08-21T06:20:01;7.32;;;5.93;;
11943;SDS011;6031;50.220;10.122;2023-08-21T06:22:28;9.65;;;8.70;;
11943;SDS011;6031;50.220;10.122;2023-08-21T06:24:53;9.85;;;9.00;;
11943;SDS011;6031;50.220;10.122;2023-08-21T06:27:19;9.00;;;8.07;;
11943;SDS011;6031;50.220;10.122;2023-08-21T06:29:44;9.77;;;8.77;;
11943;SDS011;6031;50.220;10.122;2023-08-21T06:32:10;9.27;;;8.48;;
11943;SDS011;6031;50.220;10.122;2023-08-21T06:34:35;10.48;;;8.65;;
11943;SDS011;6031;50.220;10.122;2023-08-21T06:37:01;7.70;;;6.07;;
11943;SDS011;6031;50.220;10.122;2023-08-21T06:39:26;9.35;;;7.72;;
11943;SDS011;6031;50.220;10.122;2023-08-21T06:41:52;8.60;;;7.35;;
11943;SDS011;6031;50.220;10.122;2023-08-21T06:44:18;9.23;;;8.13;;
11943;SDS011;6031;50.220;10.122;2023-08-21T06:46:43;10.35;;;8.15;;
11943;SDS011;6031;50.220;10.122;2023-08-21T06:49:09;8.55;;;7.72;;
11943;SDS011;6031;50.220;10.122;2023-08-21T06:51:34;8.75;;;7.95;;
11943;SDS011;6031;50.220;10.122;2023-08-21T06:54:00;10.07;;;7.85;;
11943;SDS011;6031;50.220;10.122;2023-08-21T06:59:47;10.82;;;6.90;;
11943;SDS011;6031;50.220;10.122;2023-08-21T07:02:33;10.48;;;8.10;;
11943;SDS011;6031;50.220;10.122;2023-08-21T07:04:59;12.20;;;7.82;;
11943;SDS011;6031;50.220;10.122;2023-08-21T07:07:24;8.65;;;7.80;;
11943;SDS011;6031;50.220;10.122;2023-08-21T07:09:51;6.78;;;5.88;;
11943;SDS011;6031;50.220;10.122;2023-08-21T07:12:16;8.63;;;7.82;;
11943;SDS011;6031;50.220;10.122;2023-08-21T07:14:42;10.73;;;7.30;;
11943;SDS011;6031;50.220;10.122;2023-08-21T07:17:08;9.50;;;8.10;;
11943;SDS011;6031;50.220;10.122;2023-08-21T07:19:33;9.55;;;7.88;;
11943;SDS011;6031;50.220;10.122;2023-08-21T07:21:59;8.68;;;7.80;;
11943;SDS011;6031;50.220;10.122;2023-08-21T07:24:24;8.35;;;7.50;;
11943;SDS011;6031;50.220;10.122;2023-08-21T07:26:50;10.93;;;7.07;;
11943;SDS011;6031;50.220;10.122;2023-08-21T07:29:15;9.48;;;7.45;;
11943;SDS011;6031;50.220;10.122;2023-08-21T07:31:41;9.02;;;8.13;;
11943;SDS011;6031;50.220;10.122;2023-08-21T07:34:07;8.68;;;7.88;;
11943;SDS011;6031;50.220;10.122;2023-08-21T07:36:33;10.32;;;7.57;;
11943;SDS011;6031;50.220;10.122;2023-08-21T07:38:58;8.10;;;7.30;;
11943;SDS011;6031;50.220;10.122;2023-08-21T07:41:24;10.93;;;8.43;;
11943;SDS011;6031;50.220;10.122;2023-08-21T07:43:49;8.88;;;8.18;;
11943;SDS011;6031;50.220;10.122;2023-08-21T07:46:15;8.25;;;7.05;;
11943;SDS011;6031;50.220;10.122;2023-08-21T07:48:41;8.82;;;7.93;;
11943;SDS011;6031;50.220;10.122;2023-08-21T07:51:07;12.50;;;7.63;;
11943;SDS011;6031;50.220;10.122;2023-08-21T07:53:33;9.57;;;8.05;;
11943;SDS011;6031;50.220;10.122;2023-08-21T07:55:59;7.65;;;6.95;;
11943;SDS011;6031;50.220;10.122;2023-08-21T07:58:26;8.18;;;7.47;;
11943;SDS011;6031;50.220;10.122;2023-08-21T08:00:52;12.07;;;8.00;;
11943;SDS011;6031;50.220;10.122;2023-08-21T08:03:17;8.80;;;7.72;;
11943;SDS011;6031;50.220;10.122;2023-08-21T08:05:43;11.38;;;8.30;;
11943;SDS011;6031;50.220;10.122;2023-08-21T08:08:09;9.20;;;8.32;;
11943;SDS011;6031;50.220;10.122;2023-08-21T08:10:38;8.48;;;7.63;;
11943;SDS011;6031;50.220;10.122;2023-08-21T08:13:04;10.40;;;8.27;;
11943;SDS011;6031;50.220;10.122;2023-08-21T08:15:30;9.55;;;7.57;;
11943;SDS011;6031;50.220;10.122;2023-08-21T08:17:56;8.82;;;7.93;;
11943;SDS011;6031;50.220;10.122;2023-08-21T08:20:22;9.32;;;8.30;;
11943;SDS011;6031;50.220;10.122;2023-08-21T08:22:48;8.50;;;7.70;;
11943;SDS011;6031;50.220;10.122;2023-08-21T08:25:13;9.43;;;7.72;;
11943;SDS011;6031;50.220;10.122;2023-08-21T08:27:39;8.32;;;7.57;;
11943;SDS011;6031;50.220;10.122;2023-08-21T08:30:05;7.80;;;7.13;;
11943;SDS011;6031;50.220;10.122;2023-08-21T08:32:31;8.27;;;7.60;;
11943;SDS011;6031;50.220;10.122;2023-08-21T08:34:57;8.48;;;7.78;;
11943;SDS011;6031;50.220;10.122;2023-08-21T08:37:22;7.95;;;7.15;;
11943;SDS011;6031;50.220;10.122;2023-08-21T08:39:50;8.43;;;7.63;;
11943;SDS011;6031;50.220;10.122;2023-08-21T08:42:16;10.40;;;7.63;;
11943;SDS011;6031;50.220;10.122;2023-08-21T08:44:42;8.75;;;7.72;;
11943;SDS011;6031;50.220;10.122;2023-08-21T08:47:11;8.43;;;6.90;;
11943;SDS011;6031;50.220;10.122;2023-08-21T08:49:38;7.53;;;6.90;;
11943;SDS011;6031;50.220;10.122;2023-08-21T08:52:04;7.85;;;6.97;;
11943;SDS011;6031;50.220;10.122;2023-08-21T08:54:30;7.50;;;6.43;;
11943;SDS011;6031;50.220;10.122;2023-08-21T08:56:56;14.25;;;6.63;;
11943;SDS011;6031;50.220;10.122;2023-08-21T08:59:22;8.50;;;6.05;;
11943;SDS011;6031;50.220;10.122;2023-08-21T09:01:48;6.70;;;6.00;;
11943;SDS011;6031;50.220;10.122;2023-08-21T09:04:14;6.55;;;6.05;;
11943;SDS011;6031;50.220;10.122;2023-08-21T09:06:40;6.80;;;6.22;;
11943;SDS011;6031;50.220;10.122;2023-08-21T09:09:08;6.35;;;5.78;;
11943;SDS011;6031;50.220;10.122;2023-08-21T09:11:41;7.10;;;5.60;;
11943;SDS011;6031;50.220;10.122;2023-08-21T09:14:08;6.43;;;5.82;;
11943;SDS011;6031;50.220;10.122;2023-08-21T09:16:35;7.30;;;5.65;;
11943;SDS011;6031;50.220;10.122;2023-08-21T09:19:01;3.85;;;3.55;;
11943;SDS011;6031;50.220;10.122;2023-08-21T09:21:26;6.20;;;5.60;;
11943;SDS011;6031;50.220;10.122;2023-08-21T09:23:57;8.77;;;5.30;;
11943;SDS011;6031;50.220;10.122;2023-08-21T09:26:24;6.45;;;5.82;;
11943;SDS011;6031;50.220;10.122;2023-08-21T09:28:50;5.88;;;5.38;;
11943;SDS011;6031;50.220;10.122;2023-08-21T09:31:38;7.32;;;5.95;;
11943;SDS011;6031;50.220;10.122;2023-08-21T09:34:03;6.00;;;5.40;;
11943;SDS011;6031;50.220;10.122;2023-08-21T09:36:33;5.53;;;5.03;;
11943;SDS011;6031;50.220;10.122;2023-08-21T09:38:59;6.45;;;5.85;;
11943;SDS011;6031;50.220;10.122;2023-08-21T09:41:25;5.57;;;5.18;;
11943;SDS011;6031;50.220;10.122;2023-08-21T09:43:51;5.30;;;4.80;;
11943;SDS011;6031;50.220;10.122;2023-08-21T09:46:22;5.53;;;4.85;;
11943;SDS011;6031;50.220;10.122;2023-08-21T09:48:49;7.82;;;5.05;;
11943;SDS011;6031;50.220;10.122;2023-08-21T09:51:16;5.80;;;5.25;;
11943;SDS011;6031;50.220;10.122;2023-08-21T09:53:42;8.88;;;5.30;;
11943;SDS011;6031;50.220;10.122;2023-08-21T09:56:07;5.47;;;4.97;;
11943;SDS011;6031;50.220;10.122;2023-08-21T09:58:34;5.35;;;4.80;;
11943;SDS011;6031;50.220;10.122;2023-08-21T10:01:01;6.15;;;4.85;;
11943;SDS011;6031;50.220;10.122;2023-08-21T10:03:38;5.63;;;5.07;;
11943;SDS011;6031;50.220;10.122;2023-08-21T10:06:05;5.65;;;5.03;;
11943;SDS011;6031;50.220;10.122;2023-08-21T10:08:35;6.07;;;5.35;;
11943;SDS011;6031;50.220;10.122;2023-08-21T10:11:04;6.07;;;5.28;;
11943;SDS011;6031;50.220;10.122;2023-08-21T10:13:32;6.38;;;5.03;;
11943;SDS011;6031;50.220;10.122;2023-08-21T10:15:58;6.10;;;5.18;;
11943;SDS011;6031;50.220;10.122;2023-08-21T10:18:29;5.45;;;4.75;;
11943;SDS011;6031;50.220;10.122;2023-08-21T10:21:09;7.30;;;4.65;;
11943;SDS011;6031;50.220;10.122;2023-08-21T10:23:46;5.10;;;4.60;;
11943;SDS011;6031;50.220;10.122;2023-08-21T10:26:15;7.43;;;5.20;;
11943;SDS011;6031;50.220;10.122;2023-08-21T10:28:48;4.50;;;4.20;;
11943;SDS011;6031;50.220;10.122;2023-08-21T10:31:26;6.72;;;4.50;;
11943;SDS011;6031;50.220;10.122;2023-08-21T10:34:00;6.20;;;5.20;;
11943;SDS011;6031;50.220;10.122;2023-08-21T10:36:40;5.55;;;5.05;;
11943;SDS011;6031;50.220;10.122;2023-08-21T10:39:25;5.82;;;4.43;;
11943;SDS011;6031;50.220;10.122;2023-08-21T10:41:52;5.80;;;5.40;;
11943;SDS011;6031;50.220;10.122;2023-08-21T10:44:31;5.55;;;5.05;;
11943;SDS011;6031;50.220;10.122;2023-08-21T10:49:52;5.30;;;4.80;;
11943;SDS011;6031;50.220;10.122;2023-08-21T10:52:27;6.28;;;5.70;;
11943;SDS011;6031;50.220;10.122;2023-08-21T10:54:54;4.22;;;3.92;;
11943;SDS011;6031;50.220;10.122;2023-08-21T10:57:22;5.95;;;4.97;;
11943;SDS011;6031;50.220;10.122;2023-08-21T10:59:55;5.25;;;4.85;;
11943;SDS011;6031;50.220;10.122;2023-08-21T11:02:35;6.95;;;5.07;;
11943;SDS011;6031;50.220;10.122;2023-08-21T11:05:01;4.85;;;3.85;;
11943;SDS011;6031;50.220;10.122;2023-08-21T11:07:28;5.05;;;4.60;;
11943;SDS011;6031;50.220;10.122;2023-08-21T11:09:55;5.15;;;4.65;;
11943;SDS011;6031;50.220;10.122;2023-08-21T11:12:21;5.47;;;4.97;;
11943;SDS011;6031;50.220;10.122;2023-08-21T11:14:48;5.65;;;5.15;;
11943;SDS011;6031;50.220;10.122;2023-08-21T11:17:14;5.43;;;4.93;;
11943;SDS011;6031;50.220;10.122;2023-08-21T11:19:40;5.75;;;4.53;;
11943;SDS011;6031;50.220;10.122;2023-08-21T11:22:06;4.78;;;4.40;;
11943;SDS011;6031;50.220;10.122;2023-08-21T11:24:42;4.13;;;3.83;;
11943;SDS011;6031;50.220;10.122;2023-08-21T11:27:10;4.45;;;2.97;;
11943;SDS011;6031;50.220;10.122;2023-08-21T11:29:39;3.40;;;3.13;;
11943;SDS011;6031;50.220;10.122;2023-08-21T11:32:13;2.88;;;2.67;;
11943;SDS011;6031;50.220;10.122;2023-08-21T11:34:41;3.83;;;2.72;;
11943;SDS011;6031;50.220;10.122;2023-08-21T11:37:11;2.92;;;2.70;;
11943;SDS011;6031;50.220;10.122;2023-08-21T11:39:50;3.15;;;2.95;;
11943;SDS011;6031;50.220;10.122;2023-08-21T11:42:18;4.35;;;3.42;;
11943;SDS011;6031;50.220;10.122;2023-08-21T11:44:53;3.40;;;3.20;;
11943;SDS011;6031;50.220;10.122;2023-08-21T11:47:19;4.65;;;3.35;;
11943;SDS011;6031;50.220;10.122;2023-08-21T11:49:47;3.20;;;2.80;;
11943;SDS011;6031;50.220;10.122;2023-08-21T11:52:18;3.20;;;2.95;;
11943;SDS011;6031;50.220;10.122;2023-08-21T11:54:47;3.50;;;3.20;;
11943;SDS011;6031;50.220;10.122;2023-08-21T11:57:14;3.53;;;3.22;;
11943;SDS011;6031;50.220;10.122;2023-08-21T11:59:40;3.42;;;3.13;;
11943;SDS011;6031;50.220;10.122;2023-08-21T12:02:19;5.13;;;3.28;;
11943;SDS011;6031;50.220;10.122;2023-08-21T12:05:03;3.40;;;3.20;;
11943;SDS011;6031;50.220;10.122;2023-08-21T12:07:30;2.70;;;2.15;;
11943;SDS011;6031;50.220;10.122;2023-08-21T12:09:59;3.13;;;2.92;;
11943;SDS011;6031;50.220;10.122;2023-08-21T12:12:25;3.45;;;3.25;;
11943;SDS011;6031;50.220;10.122;2023-08-21T12:14:50;3.03;;;2.83;;
11943;SDS011;6031;50.220;10.122;2023-08-21T12:17:16;3.90;;;2.40;;
11943;SDS011;6031;50.220;10.122;2023-08-21T12:19:41;4.88;;;3.75;;
11943;SDS011;6031;50.220;10.122;2023-08-21T12:22:08;3.58;;;3.25;;
11943;SDS011;6031;50.220;10.122;2023-08-21T12:24:34;4.03;;;3.42;;
11943;SDS011;6031;50.220;10.122;2023-08-21T12:26:59;3.90;;;3.47;;
11943;SDS011;6031;50.220;10.122;2023-08-21T12:29:25;3.67;;;3.38;;
11943;SDS011;6031;50.220;10.122;2023-08-21T12:31:50;3.15;;;2.95;;
11943;SDS011;6031;50.220;10.122;2023-08-21T12:34:16;4.60;;;3.08;;
11943;SDS011;6031;50.220;10.122;2023-08-21T12:36:42;5.28;;;3.72;;
11943;SDS011;6031;50.220;10.122;2023-08-21T12:39:07;3.30;;;3.00;;
11943;SDS011;6031;50.220;10.122;2023-08-21T12:41:33;4.35;;;3.30;;
11943;SDS011;6031;50.220;10.122;2023-08-21T12:43:59;4.45;;;3.22;;
11943;SDS011;6031;50.220;10.122;2023-08-21T12:46:25;4.63;;;3.38;;
11943;SDS011;6031;50.220;10.122;2023-08-21T12:48:52;4.13;;;3.72;;
11943;SDS011;6031;50.220;10.122;2023-08-21T12:51:18;3.35;;;3.10;;
11943;SDS011;6031;50.220;10.122;2023-08-21T12:53:44;4.90;;;2.70;;
11943;SDS011;6031;50.220;10.122;2023-08-21T12:56:09;4.70;;;2.90;;
11943;SDS011;6031;50.220;10.122;2023-08-21T12:58:35;2.28;;;2.17;;
11943;SDS011;6031;50.220;10.122;2023-08-21T13:01:00;3.88;;;3.00;;
11943;SDS011;6031;50.220;10.122;2023-08-21T13:03:28;2.47;;;2.28;;
11943;SDS011;6031;50.220;10.122;2023-08-21T13:05:54;4.30;;;2.95;;
11943;SDS011;6031;50.220;10.122;2023-08-21T13:08:20;4.22;;;2.90;;
11943;SDS011;6031;50.220;10.122;2023-08-21T13:10:46;2.75;;;2.55;;
11943;SDS011;6031;50.220;10.122;2023-08-21T13:13:11;4.43;;;2.70;;
11943;SDS011;6031;50.220;10.122;2023-08-21T13:15:37;3.22;;;2.63;;
11943;SDS011;6031;50.220;10.122;2023-08-21T13:18:03;3.00;;;2.70;;
11943;SDS011;6031;50.220;10.122;2023-08-21T13:20:29;3.55;;;2.78;;
11943;SDS011;6031;50.220;10.122;2023-08-21T13:22:54;2.88;;;2.53;;
11943;SDS011;6031;50.220;10.122;2023-08-21T13:25:23;3.22;;;2.90;;
11943;SDS011;6031;50.220;10.122;2023-08-21T13:27:52;2.90;;;2.70;;
11943;SDS011;6031;50.220;10.122;2023-08-21T13:30:18;2.35;;;2.25;;
11943;SDS011;6031;50.220;10.122;2023-08-21T13:32:45;3.42;;;3.10;;
11943;SDS011;6031;50.220;10.122;2023-08-21T13:35:10;3.20;;;2.90;;
11943;SDS011;6031;50.220;10.122;2023-08-21T13:37:37;4.03;;;3.25;;
11943;SDS011;6031;50.220;10.122;2023-08-21T13:40:03;3.72;;;2.95;;
11943;SDS011;6031;50.220;10.122;2023-08-21T13:42:39;3.17;;;2.95;;
11943;SDS011;6031;50.220;10.122;2023-08-21T13:45:06;5.28;;;3.15;;
11943;SDS011;6031;50.220;10.122;2023-08-21T13:47:42;3.42;;;2.25;;
11943;SDS011;6031;50.220;10.122;2023-08-21T13:50:12;3.13;;;2.92;;
11943;SDS011;6031;50.220;10.122;2023-08-21T13:52:39;3.40;;;3.10;;
11943;SDS011;6031;50.220;10.122;2023-08-21T13:55:05;2.45;;;2.17;;
11943;SDS011;6031;50.220;10.122;2023-08-21T13:57:31;4.18;;;3.75;;
11943;SDS011;6031;50.220;10.122;2023-08-21T13:59:58;3.65;;;3.28;;
11943;SDS011;6031;50.220;10.122;2023-08-21T14:02:24;5.35;;;3.22;;
11943;SDS011;6031;50.220;10.122;2023-08-21T14:04:49;2.47;;;2.30;;
11943;SDS011;6031;50.220;10.122;2023-08-21T14:07:15;3.45;;;3.15;;
11943;SDS011;6031;50.220;10.122;2023-08-21T14:09:40;4.68;;;3.03;;
11943;SDS011;6031;50.220;10.122;2023-08-21T14:12:06;4.47;;;3.13;;
11943;SDS011;6031;50.220;10.122;2023-08-21T14:14:32;5.97;;;3.28;;
11943;SDS011;6031;50.220;10.122;2023-08-21T14:16:58;3.60;;;3.33;;
11943;SDS011;6031;50.220;10.122;2023-08-21T14:19:24;4.05;;;3.30;;
11943;SDS011;6031;50.220;10.122;2023-08-21T14:21:49;2.90;;;2.70;;
11943;SDS011;6031;50.220;10.122;2023-08-21T14:24:15;5.43;;;3.42;;
11943;SDS011;6031;50.220;10.122;2023-08-21T14:26:41;2.67;;;2.47;;
11943;SDS011;6031;50.220;10.122;2023-08-21T14:29:07;5.07;;;3.03;;
11943;SDS011;6031;50.220;10.122;2023-08-21T14:31:32;4.38;;;3.20;;
11943;SDS011;6031;50.220;10.122;2023-08-21T14:33:58;3.78;;;3.47;;
11943;SDS011;6031;50.220;10.122;2023-08-21T14:36:24;5.18;;;3.53;;
11943;SDS011;6031;50.220;10.122;2023-08-21T14:38:49;4.88;;;3.75;;
11943;SDS011;6031;50.220;10.122;2023-08-21T14:41:15;3.65;;;3.35;;
11943;SDS011;6031;50.220;10.122;2023-08-21T14:43:41;3.40;;;3.10;;
11943;SDS011;6031;50.220;10.122;2023-08-21T14:46:07;5.65;;;3.83;;
11943;SDS011;6031;50.220;10.122;2023-08-21T14:48:32;6.25;;;3.10;;
11943;SDS011;6031;50.220;10.122;2023-08-21T14:50:58;3.47;;;3.20;;
11943;SDS011;6031;50.220;10.122;2023-08-21T14:53:23;2.80;;;2.60;;